sensor_id;sensor_type;location;lat;lon;timestamp;P1;durP1;ratioP1;P2;durP2;ratioP2
568;SDS011;269;48.884;9.192;2024-01-30T00:02:20;12.57;;;10.98;;
568;SDS011;269;48.884;9.192;2024-01-30T00:04:47;15.60;;;11.80;;
568;SDS011;269;48.884;9.192;2024-01-30T00:07:13;14.80;;;12.10;;
568;SDS011;269;48.884;9.192;2024-01-30T00:09:42;12.65;;;10.95;;
568;SDS011;269;48.884;9.192;2024-01-30T00:12:08;16.48;;;10.85;;
568;SDS011;269;48.884;9.192;2024-01-30T00:14:37;13.57;;;10.60;;
568;SDS011;269;48.884;9.192;2024-01-30T00:17:04;13.05;;;11.25;;
568;SDS011;269;48.884;9.192;2024-01-30T00:19:30;13.60;;;11.05;;
568;SDS011;269;48.884;9.192;2024-01-30T00:21:57;13.68;;;10.43;;
568;SDS011;269;48.884;9.192;2024-01-30T00:24:23;13.13;;;11.82;;
568;SDS011;269;48.884;9.192;2024-01-30T00:26:51;12.60;;;11.30;;
568;SDS011;269;48.884;9.192;2024-01-30T00:29:18;13.90;;;11.40;;
568;SDS011;269;48.884;9.192;2024-01-30T00:31:46;14.48;;;12.77;;
568;SDS011;269;48.884;9.192;2024-01-30T00:34:13;14.23;;;12.20;;
568;SDS011;269;48.884;9.192;2024-01-30T00:36:40;13.98;;;12.45;;
568;SDS011;269;48.884;9.192;2024-01-30T00:39:06;13.05;;;11.68;;
568;SDS011;269;48.884;9.192;2024-01-30T00:41:34;13.57;;;12.18;;
568;SDS011;269;48.884;9.192;2024-01-30T00:44:02;14.35;;;12.00;;
568;SDS011;269;48.884;9.192;2024-01-30T00:46:29;13.15;;;11.80;;
568;SDS011;269;48.884;9.192;2024-01-30T00:48:56;14.02;;;12.45;;
568;SDS011;269;48.884;9.192;2024-01-30T00:51:23;15.20;;;12.32;;
568;SDS011;269;48.884;9.192;2024-01-30T00:53:50;15.55;;;12.60;;
568;SDS011;269;48.884;9.192;2024-01-30T00:56:16;16.92;;;12.85;;
568;SDS011;269;48.884;9.192;2024-01-30T00:58:43;14.00;;;12.50;;
568;SDS011;269;48.884;9.192;2024-01-30T01:01:11;15.02;;;12.07;;
568;SDS011;269;48.884;9.192;2024-01-30T01:03:38;15.13;;;12.85;;
568;SDS011;269;48.884;9.192;2024-01-30T01:06:05;13.57;;;12.23;;
568;SDS011;269;48.884;9.192;2024-01-30T01:08:32;14.98;;;12.80;;
568;SDS011;269;48.884;9.192;2024-01-30T01:10:59;14.85;;;12.50;;
568;SDS011;269;48.884;9.192;2024-01-30T01:13:25;14.50;;;12.65;;
568;SDS011;269;48.884;9.192;2024-01-30T01:15:52;14.05;;;12.60;;
568;SDS011;269;48.884;9.192;2024-01-30T01:18:20;15.15;;;13.02;;
568;SDS011;269;48.884;9.192;2024-01-30T01:20:46;14.60;;;13.10;;
568;SDS011;269;48.884;9.192;2024-01-30T01:23:13;15.00;;;12.52;;
568;SDS011;269;48.884;9.192;2024-01-30T01:25:39;14.68;;;13.18;;
568;SDS011;269;48.884;9.192;2024-01-30T01:28:06;13.90;;;12.38;;
568;SDS011;269;48.884;9.192;2024-01-30T01:30:32;18.13;;;13.45;;
568;SDS011;269;48.884;9.192;2024-01-30T01:32:59;15.18;;;13.27;;
568;SDS011;269;48.884;9.192;2024-01-30T01:35:28;13.57;;;12.27;;
568;SDS011;269;48.884;9.192;2024-01-30T01:37:55;14.20;;;12.80;;
568;SDS011;269;48.884;9.192;2024-01-30T01:40:23;15.10;;;13.07;;
568;SDS011;269;48.884;9.192;2024-01-30T01:42:51;12.45;;;11.15;;
568;SDS011;269;48.884;9.192;2024-01-30T01:45:18;15.40;;;12.27;;
568;SDS011;269;48.884;9.192;2024-01-30T01:47:45;14.55;;;13.05;;
568;SDS011;269;48.884;9.192;2024-01-30T01:50:15;14.98;;;12.48;;
568;SDS011;269;48.884;9.192;2024-01-30T01:52:44;13.90;;;12.50;;
568;SDS011;269;48.884;9.192;2024-01-30T01:55:14;15.18;;;13.05;;
568;SDS011;269;48.884;9.192;2024-01-30T01:57:41;15.07;;;13.00;;
568;SDS011;269;48.884;9.192;2024-01-30T02:00:08;14.07;;;12.57;;
568;SDS011;269;48.884;9.192;2024-01-30T02:02:35;15.70;;;14.10;;
568;SDS011;269;48.884;9.192;2024-01-30T02:05:02;16.85;;;13.73;;
568;SDS011;269;48.884;9.192;2024-01-30T02:07:29;15.68;;;13.68;;
568;SDS011;269;48.884;9.192;2024-01-30T02:09:57;15.82;;;13.20;;
568;SDS011;269;48.884;9.192;2024-01-30T02:12:23;15.80;;;14.05;;
568;SDS011;269;48.884;9.192;2024-01-30T02:14:50;14.70;;;13.27;;
568;SDS011;269;48.884;9.192;2024-01-30T02:17:16;14.38;;;12.40;;
568;SDS011;269;48.884;9.192;2024-01-30T02:19:43;15.27;;;13.05;;
568;SDS011;269;48.884;9.192;2024-01-30T02:22:11;17.45;;;13.93;;
568;SDS011;269;48.884;9.192;2024-01-30T02:24:38;14.45;;;12.95;;
568;SDS011;269;48.884;9.192;2024-01-30T02:27:04;16.13;;;14.43;;
568;SDS011;269;48.884;9.192;2024-01-30T02:29:31;14.02;;;12.68;;
568;SDS011;269;48.884;9.192;2024-01-30T02:31:59;15.02;;;13.30;;
568;SDS011;269;48.884;9.192;2024-01-30T02:34:25;15.00;;;13.40;;
568;SDS011;269;48.884;9.192;2024-01-30T02:36:52;14.98;;;13.45;;
568;SDS011;269;48.884;9.192;2024-01-30T02:39:20;14.63;;;12.63;;
568;SDS011;269;48.884;9.192;2024-01-30T02:41:46;13.75;;;12.35;;
568;SDS011;269;48.884;9.192;2024-01-30T02:44:13;15.10;;;13.18;;
568;SDS011;269;48.884;9.192;2024-01-30T02:46:39;15.10;;;12.30;;
568;SDS011;269;48.884;9.192;2024-01-30T02:49:06;15.25;;;13.57;;
568;SDS011;269;48.884;9.192;2024-01-30T02:51:33;14.70;;;13.18;;
568;SDS011;269;48.884;9.192;2024-01-30T02:53:59;14.38;;;12.88;;
568;SDS011;269;48.884;9.192;2024-01-30T02:56:27;18.15;;;13.30;;
568;SDS011;269;48.884;9.192;2024-01-30T02:58:55;13.32;;;12.02;;
568;SDS011;269;48.884;9.192;2024-01-30T03:01:21;16.08;;;13.20;;
568;SDS011;269;48.884;9.192;2024-01-30T03:03:49;15.25;;;13.50;;
568;SDS011;269;48.884;9.192;2024-01-30T03:06:16;12.95;;;11.65;;
568;SDS011;269;48.884;9.192;2024-01-30T03:08:42;15.18;;;11.85;;
568;SDS011;269;48.884;9.192;2024-01-30T03:11:09;13.32;;;11.88;;
568;SDS011;269;48.884;9.192;2024-01-30T03:13:38;13.68;;;12.38;;
568;SDS011;269;48.884;9.192;2024-01-30T03:16:05;13.30;;;11.80;;
568;SDS011;269;48.884;9.192;2024-01-30T03:18:32;13.18;;;11.75;;
568;SDS011;269;48.884;9.192;2024-01-30T03:20:59;13.75;;;12.07;;
568;SDS011;269;48.884;9.192;2024-01-30T03:23:26;13.30;;;12.00;;
568;SDS011;269;48.884;9.192;2024-01-30T03:25:52;12.68;;;10.63;;
568;SDS011;269;48.884;9.192;2024-01-30T03:28:19;11.60;;;10.50;;
568;SDS011;269;48.884;9.192;2024-01-30T03:30:47;12.82;;;11.38;;
568;SDS011;269;48.884;9.192;2024-01-30T03:33:13;13.80;;;11.85;;
568;SDS011;269;48.884;9.192;2024-01-30T03:35:41;13.25;;;11.80;;
568;SDS011;269;48.884;9.192;2024-01-30T03:38:08;13.75;;;11.30;;
568;SDS011;269;48.884;9.192;2024-01-30T03:40:34;13.50;;;11.57;;
568;SDS011;269;48.884;9.192;2024-01-30T03:43:01;13.43;;;11.30;;
568;SDS011;269;48.884;9.192;2024-01-30T03:45:27;11.70;;;10.60;;
568;SDS011;269;48.884;9.192;2024-01-30T03:47:55;11.57;;;10.35;;
568;SDS011;269;48.884;9.192;2024-01-30T03:50:22;11.90;;;10.70;;
568;SDS011;269;48.884;9.192;2024-01-30T03:52:48;12.32;;;10.98;;
568;SDS011;269;48.884;9.192;2024-01-30T03:55:15;12.73;;;11.40;;
568;SDS011;269;48.884;9.192;2024-01-30T03:57:41;12.63;;;11.20;;
568;SDS011;269;48.884;9.192;2024-01-30T04:00:08;11.45;;;10.35;;
568;SDS011;269;48.884;9.192;2024-01-30T04:02:35;11.88;;;10.73;;
568;SDS011;269;48.884;9.192;2024-01-30T04:05:03;12.10;;;10.80;;
568;SDS011;269;48.884;9.192;2024-01-30T04:07:30;12.43;;;11.10;;
568;SDS011;269;48.884;9.192;2024-01-30T04:09:57;13.73;;;11.73;;
568;SDS011;269;48.884;9.192;2024-01-30T04:12:24;13.75;;;11.48;;
568;SDS011;269;48.884;9.192;2024-01-30T04:14:51;13.13;;;11.32;;
568;SDS011;269;48.884;9.192;2024-01-30T04:17:18;12.60;;;11.50;;
568;SDS011;269;48.884;9.192;2024-01-30T04:19:44;12.65;;;11.35;;
568;SDS011;269;48.884;9.192;2024-01-30T04:22:12;13.15;;;11.85;;
568;SDS011;269;48.884;9.192;2024-01-30T04:24:39;12.63;;;11.32;;
568;SDS011;269;48.884;9.192;2024-01-30T04:27:05;14.63;;;12.20;;
568;SDS011;269;48.884;9.192;2024-01-30T04:29:32;13.35;;;11.73;;
568;SDS011;269;48.884;9.192;2024-01-30T04:31:59;13.02;;;11.70;;
568;SDS011;269;48.884;9.192;2024-01-30T04:34:27;13.13;;;11.85;;
568;SDS011;269;48.884;9.192;2024-01-30T04:36:55;12.57;;;11.38;;
568;SDS011;269;48.884;9.192;2024-01-30T04:39:23;13.05;;;11.70;;
568;SDS011;269;48.884;9.192;2024-01-30T04:41:49;12.30;;;11.10;;
568;SDS011;269;48.884;9.192;2024-01-30T04:44:16;12.40;;;11.10;;
568;SDS011;269;48.884;9.192;2024-01-30T04:46:42;13.70;;;11.73;;
568;SDS011;269;48.884;9.192;2024-01-30T04:49:09;13.38;;;11.15;;
568;SDS011;269;48.884;9.192;2024-01-30T04:51:35;12.82;;;11.52;;
568;SDS011;269;48.884;9.192;2024-01-30T04:54:02;14.20;;;12.05;;
568;SDS011;269;48.884;9.192;2024-01-30T04:56:30;13.65;;;11.05;;
568;SDS011;269;48.884;9.192;2024-01-30T04:58:56;13.10;;;11.80;;
568;SDS011;269;48.884;9.192;2024-01-30T05:01:23;13.40;;;12.10;;
568;SDS011;269;48.884;9.192;2024-01-30T05:03:49;14.73;;;12.18;;
568;SDS011;269;48.884;9.192;2024-01-30T05:06:23;13.07;;;11.77;;
568;SDS011;269;48.884;9.192;2024-01-30T05:08:50;13.65;;;11.45;;
568;SDS011;269;48.884;9.192;2024-01-30T05:11:17;12.32;;;11.20;;
568;SDS011;269;48.884;9.192;2024-01-30T05:13:44;14.50;;;12.20;;
568;SDS011;269;48.884;9.192;2024-01-30T05:16:11;12.85;;;11.65;;
568;SDS011;269;48.884;9.192;2024-01-30T05:18:38;12.90;;;11.70;;
568;SDS011;269;48.884;9.192;2024-01-30T05:21:05;13.45;;;12.15;;
568;SDS011;269;48.884;9.192;2024-01-30T05:23:31;12.02;;;10.93;;
568;SDS011;269;48.884;9.192;2024-01-30T05:25:58;13.95;;;12.57;;
568;SDS011;269;48.884;9.192;2024-01-30T05:28:26;13.15;;;11.82;;
568;SDS011;269;48.884;9.192;2024-01-30T05:30:54;13.80;;;12.48;;
568;SDS011;269;48.884;9.192;2024-01-30T05:33:20;11.95;;;10.85;;
568;SDS011;269;48.884;9.192;2024-01-30T05:35:47;12.07;;;10.90;;
568;SDS011;269;48.884;9.192;2024-01-30T05:38:15;15.00;;;11.40;;
568;SDS011;269;48.884;9.192;2024-01-30T05:40:42;12.15;;;11.05;;
568;SDS011;269;48.884;9.192;2024-01-30T05:43:09;12.52;;;10.52;;
568;SDS011;269;48.884;9.192;2024-01-30T05:45:35;12.10;;;10.90;;
568;SDS011;269;48.884;9.192;2024-01-30T05:48:03;13.20;;;11.90;;
568;SDS011;269;48.884;9.192;2024-01-30T05:50:30;13.10;;;11.80;;
568;SDS011;269;48.884;9.192;2024-01-30T05:52:57;14.18;;;12.10;;
568;SDS011;269;48.884;9.192;2024-01-30T05:55:23;11.48;;;10.40;;
568;SDS011;269;48.884;9.192;2024-01-30T05:57:50;13.63;;;10.45;;
568;SDS011;269;48.884;9.192;2024-01-30T06:00:17;12.57;;;11.38;;
568;SDS011;269;48.884;9.192;2024-01-30T06:02:44;13.05;;;11.60;;
568;SDS011;269;48.884;9.192;2024-01-30T06:05:12;12.48;;;11.27;;
568;SDS011;269;48.884;9.192;2024-01-30T06:07:39;11.75;;;10.55;;
568;SDS011;269;48.884;9.192;2024-01-30T06:10:06;12.35;;;10.95;;
568;SDS011;269;48.884;9.192;2024-01-30T06:12:34;11.45;;;10.32;;
568;SDS011;269;48.884;9.192;2024-01-30T06:15:03;12.13;;;10.73;;
568;SDS011;269;48.884;9.192;2024-01-30T06:17:30;12.80;;;11.60;;
568;SDS011;269;48.884;9.192;2024-01-30T06:19:58;11.45;;;10.30;;
568;SDS011;269;48.884;9.192;2024-01-30T06:22:26;12.52;;;11.27;;
568;SDS011;269;48.884;9.192;2024-01-30T06:24:52;13.55;;;12.18;;
568;SDS011;269;48.884;9.192;2024-01-30T06:27:19;13.18;;;11.70;;
568;SDS011;269;48.884;9.192;2024-01-30T06:29:46;13.57;;;12.23;;
568;SDS011;269;48.884;9.192;2024-01-30T06:32:12;13.20;;;11.00;;
568;SDS011;269;48.884;9.192;2024-01-30T06:34:39;13.32;;;11.93;;
568;SDS011;269;48.884;9.192;2024-01-30T06:37:10;13.68;;;12.27;;
568;SDS011;269;48.884;9.192;2024-01-30T06:39:39;13.02;;;11.73;;
568;SDS011;269;48.884;9.192;2024-01-30T06:42:06;13.25;;;11.55;;
568;SDS011;269;48.884;9.192;2024-01-30T06:44:32;13.50;;;12.30;;
568;SDS011;269;48.884;9.192;2024-01-30T06:46:59;12.60;;;11.30;;
568;SDS011;269;48.884;9.192;2024-01-30T06:49:26;13.73;;;12.43;;
568;SDS011;269;48.884;9.192;2024-01-30T06:51:52;13.30;;;12.00;;
568;SDS011;269;48.884;9.192;2024-01-30T06:54:19;12.82;;;11.40;;
568;SDS011;269;48.884;9.192;2024-01-30T06:56:47;15.05;;;12.75;;
568;SDS011;269;48.884;9.192;2024-01-30T06:59:14;13.80;;;12.40;;
568;SDS011;269;48.884;9.192;2024-01-30T07:01:47;14.25;;;11.95;;
568;SDS011;269;48.884;9.192;2024-01-30T07:04:14;12.52;;;11.15;;
568;SDS011;269;48.884;9.192;2024-01-30T07:06:41;13.10;;;11.82;;
568;SDS011;269;48.884;9.192;2024-01-30T07:09:07;12.95;;;11.75;;
568;SDS011;269;48.884;9.192;2024-01-30T07:11:34;13.65;;;11.75;;
568;SDS011;269;48.884;9.192;2024-01-30T07:14:02;12.70;;;11.40;;
568;SDS011;269;48.884;9.192;2024-01-30T07:16:29;12.13;;;11.02;;
568;SDS011;269;48.884;9.192;2024-01-30T07:18:57;12.23;;;11.13;;
568;SDS011;269;48.884;9.192;2024-01-30T07:21:24;13.20;;;11.90;;
568;SDS011;269;48.884;9.192;2024-01-30T07:23:53;12.63;;;11.32;;
568;SDS011;269;48.884;9.192;2024-01-30T07:26:20;11.98;;;10.77;;
568;SDS011;269;48.884;9.192;2024-01-30T07:28:46;12.13;;;10.93;;
568;SDS011;269;48.884;9.192;2024-01-30T07:31:14;11.60;;;10.50;;
568;SDS011;269;48.884;9.192;2024-01-30T07:33:40;13.63;;;11.70;;
568;SDS011;269;48.884;9.192;2024-01-30T07:36:07;12.90;;;11.60;;
568;SDS011;269;48.884;9.192;2024-01-30T07:38:35;12.52;;;11.23;;
568;SDS011;269;48.884;9.192;2024-01-30T07:41:02;11.65;;;10.45;;
568;SDS011;269;48.884;9.192;2024-01-30T07:43:28;13.60;;;11.40;;
568;SDS011;269;48.884;9.192;2024-01-30T07:45:55;13.27;;;11.80;;
568;SDS011;269;48.884;9.192;2024-01-30T07:48:23;12.40;;;11.27;;
568;SDS011;269;48.884;9.192;2024-01-30T07:50:50;12.43;;;11.13;;
568;SDS011;269;48.884;9.192;2024-01-30T07:53:16;11.60;;;10.35;;
568;SDS011;269;48.884;9.192;2024-01-30T07:55:43;14.73;;;11.77;;
568;SDS011;269;48.884;9.192;2024-01-30T07:58:11;12.82;;;11.30;;
568;SDS011;269;48.884;9.192;2024-01-30T08:00:38;12.93;;;11.45;;
568;SDS011;269;48.884;9.192;2024-01-30T08:03:05;12.90;;;11.50;;
568;SDS011;269;48.884;9.192;2024-01-30T08:05:32;13.05;;;11.70;;
568;SDS011;269;48.884;9.192;2024-01-30T08:07:59;13.15;;;11.75;;
568;SDS011;269;48.884;9.192;2024-01-30T08:10:26;15.18;;;12.32;;
568;SDS011;269;48.884;9.192;2024-01-30T08:12:52;14.30;;;12.82;;
568;SDS011;269;48.884;9.192;2024-01-30T08:15:19;13.00;;;11.80;;
568;SDS011;269;48.884;9.192;2024-01-30T08:17:45;14.80;;;12.30;;
568;SDS011;269;48.884;9.192;2024-01-30T08:20:12;12.95;;;11.65;;
568;SDS011;269;48.884;9.192;2024-01-30T08:22:40;13.80;;;12.05;;
568;SDS011;269;48.884;9.192;2024-01-30T08:25:07;13.90;;;12.50;;
568;SDS011;269;48.884;9.192;2024-01-30T08:27:34;13.52;;;11.88;;
568;SDS011;269;48.884;9.192;2024-01-30T08:30:03;13.85;;;12.40;;
568;SDS011;269;48.884;9.192;2024-01-30T08:32:31;12.90;;;11.10;;
568;SDS011;269;48.884;9.192;2024-01-30T08:34:58;13.45;;;11.10;;
568;SDS011;269;48.884;9.192;2024-01-30T08:37:24;13.80;;;11.13;;
568;SDS011;269;48.884;9.192;2024-01-30T08:39:52;12.35;;;10.95;;
568;SDS011;269;48.884;9.192;2024-01-30T08:42:19;12.45;;;11.23;;
568;SDS011;269;48.884;9.192;2024-01-30T08:44:47;12.10;;;10.88;;
568;SDS011;269;48.884;9.192;2024-01-30T08:47:14;10.73;;;9.63;;
568;SDS011;269;48.884;9.192;2024-01-30T08:49:42;12.43;;;11.13;;
568;SDS011;269;48.884;9.192;2024-01-30T08:52:09;12.32;;;11.00;;
568;SDS011;269;48.884;9.192;2024-01-30T08:54:36;12.25;;;11.15;;
568;SDS011;269;48.884;9.192;2024-01-30T08:57:04;10.82;;;9.82;;
568;SDS011;269;48.884;9.192;2024-01-30T08:59:30;14.05;;;10.35;;
568;SDS011;269;48.884;9.192;2024-01-30T09:01:58;11.57;;;9.93;;
568;SDS011;269;48.884;9.192;2024-01-30T09:04:25;12.30;;;11.20;;
568;SDS011;269;48.884;9.192;2024-01-30T09:06:51;12.02;;;10.90;;
568;SDS011;269;48.884;9.192;2024-01-30T09:09:18;11.02;;;9.93;;
568;SDS011;269;48.884;9.192;2024-01-30T09:11:45;12.20;;;11.00;;
568;SDS011;269;48.884;9.192;2024-01-30T09:14:13;11.90;;;10.55;;
568;SDS011;269;48.884;9.192;2024-01-30T09:16:47;10.77;;;9.55;;
568;SDS011;269;48.884;9.192;2024-01-30T09:19:14;13.82;;;10.70;;
568;SDS011;269;48.884;9.192;2024-01-30T09:21:40;11.40;;;10.30;;
568;SDS011;269;48.884;9.192;2024-01-30T09:24:07;11.85;;;10.60;;
568;SDS011;269;48.884;9.192;2024-01-30T09:26:34;12.10;;;10.90;;
568;SDS011;269;48.884;9.192;2024-01-30T09:29:00;12.57;;;10.48;;
568;SDS011;269;48.884;9.192;2024-01-30T09:31:30;11.30;;;10.30;;
568;SDS011;269;48.884;9.192;2024-01-30T09:33:57;11.75;;;10.50;;
568;SDS011;269;48.884;9.192;2024-01-30T09:36:23;11.68;;;9.82;;
568;SDS011;269;48.884;9.192;2024-01-30T09:38:50;10.90;;;9.82;;
568;SDS011;269;48.884;9.192;2024-01-30T09:41:17;10.88;;;9.85;;
568;SDS011;269;48.884;9.192;2024-01-30T09:43:46;10.93;;;9.93;;
568;SDS011;269;48.884;9.192;2024-01-30T09:46:14;10.80;;;9.70;;
568;SDS011;269;48.884;9.192;2024-01-30T09:48:44;10.65;;;9.55;;
568;SDS011;269;48.884;9.192;2024-01-30T09:51:12;10.82;;;9.90;;
568;SDS011;269;48.884;9.192;2024-01-30T09:53:41;10.35;;;9.25;;
568;SDS011;269;48.884;9.192;2024-01-30T09:56:08;10.75;;;9.75;;
568;SDS011;269;48.884;9.192;2024-01-30T09:58:36;11.20;;;10.20;;
568;SDS011;269;48.884;9.192;2024-01-30T10:01:04;12.20;;;10.60;;
568;SDS011;269;48.884;9.192;2024-01-30T10:03:31;11.02;;;10.02;;
568;SDS011;269;48.884;9.192;2024-01-30T10:05:59;10.35;;;9.30;;
568;SDS011;269;48.884;9.192;2024-01-30T10:08:26;10.50;;;9.50;;
568;SDS011;269;48.884;9.192;2024-01-30T10:10:54;10.77;;;9.68;;
568;SDS011;269;48.884;9.192;2024-01-30T10:13:20;12.10;;;10.90;;
568;SDS011;269;48.884;9.192;2024-01-30T10:15:47;10.75;;;9.75;;
568;SDS011;269;48.884;9.192;2024-01-30T10:18:14;10.43;;;9.48;;
568;SDS011;269;48.884;9.192;2024-01-30T10:20:40;10.60;;;9.50;;
568;SDS011;269;48.884;9.192;2024-01-30T10:23:08;10.60;;;9.70;;
568;SDS011;269;48.884;9.192;2024-01-30T10:25:35;11.18;;;10.05;;
568;SDS011;269;48.884;9.192;2024-01-30T10:28:02;11.80;;;10.70;;
568;SDS011;269;48.884;9.192;2024-01-30T10:30:29;11.77;;;10.57;;
568;SDS011;269;48.884;9.192;2024-01-30T10:32:55;10.85;;;9.57;;
568;SDS011;269;48.884;9.192;2024-01-30T10:35:22;11.10;;;10.00;;
568;SDS011;269;48.884;9.192;2024-01-30T10:37:48;12.77;;;10.43;;
568;SDS011;269;48.884;9.192;2024-01-30T10:40:16;11.88;;;10.57;;
568;SDS011;269;48.884;9.192;2024-01-30T10:42:43;11.60;;;10.43;;
568;SDS011;269;48.884;9.192;2024-01-30T10:45:11;13.60;;;10.07;;
568;SDS011;269;48.884;9.192;2024-01-30T10:47:43;11.20;;;10.13;;
568;SDS011;269;48.884;9.192;2024-01-30T10:50:10;11.95;;;10.35;;
568;SDS011;269;48.884;9.192;2024-01-30T10:52:37;10.88;;;9.77;;
568;SDS011;269;48.884;9.192;2024-01-30T10:55:04;10.93;;;9.88;;
568;SDS011;269;48.884;9.192;2024-01-30T10:57:34;10.98;;;9.93;;
568;SDS011;269;48.884;9.192;2024-01-30T11:00:02;11.60;;;10.40;;
568;SDS011;269;48.884;9.192;2024-01-30T11:02:35;10.93;;;10.00;;
568;SDS011;269;48.884;9.192;2024-01-30T11:05:04;12.05;;;9.80;;
568;SDS011;269;48.884;9.192;2024-01-30T11:07:31;10.30;;;9.30;;
568;SDS011;269;48.884;9.192;2024-01-30T11:10:01;11.90;;;10.00;;
568;SDS011;269;48.884;9.192;2024-01-30T11:12:29;11.90;;;9.68;;
568;SDS011;269;48.884;9.192;2024-01-30T11:15:03;11.82;;;10.25;;
568;SDS011;269;48.884;9.192;2024-01-30T11:17:43;10.30;;;9.30;;
568;SDS011;269;48.884;9.192;2024-01-30T11:20:10;10.65;;;9.55;;
568;SDS011;269;48.884;9.192;2024-01-30T11:22:40;9.80;;;8.90;;
568;SDS011;269;48.884;9.192;2024-01-30T11:25:10;10.68;;;9.70;;
568;SDS011;269;48.884;9.192;2024-01-30T11:27:37;10.68;;;9.48;;
568;SDS011;269;48.884;9.192;2024-01-30T11:30:07;11.57;;;10.48;;
568;SDS011;269;48.884;9.192;2024-01-30T11:32:34;10.27;;;9.38;;
568;SDS011;269;48.884;9.192;2024-01-30T11:35:02;10.15;;;9.18;;
568;SDS011;269;48.884;9.192;2024-01-30T11:37:30;9.73;;;8.82;;
568;SDS011;269;48.884;9.192;2024-01-30T11:39:57;9.70;;;8.77;;
568;SDS011;269;48.884;9.192;2024-01-30T11:42:24;9.80;;;8.90;;
568;SDS011;269;48.884;9.192;2024-01-30T11:44:52;11.23;;;9.38;;
568;SDS011;269;48.884;9.192;2024-01-30T11:47:20;10.07;;;8.98;;
568;SDS011;269;48.884;9.192;2024-01-30T11:49:46;9.77;;;8.95;;
568;SDS011;269;48.884;9.192;2024-01-30T11:52:13;10.80;;;8.80;;
568;SDS011;269;48.884;9.192;2024-01-30T11:54:40;10.65;;;8.35;;
568;SDS011;269;48.884;9.192;2024-01-30T11:57:06;12.48;;;9.70;;
568;SDS011;269;48.884;9.192;2024-01-30T11:59:33;10.82;;;9.05;;
568;SDS011;269;48.884;9.192;2024-01-30T12:01:59;9.77;;;8.88;;
568;SDS011;269;48.884;9.192;2024-01-30T12:04:29;10.18;;;9.18;;
568;SDS011;269;48.884;9.192;2024-01-30T12:06:55;10.68;;;9.60;;
568;SDS011;269;48.884;9.192;2024-01-30T12:09:22;10.90;;;8.77;;
568;SDS011;269;48.884;9.192;2024-01-30T12:11:49;9.30;;;8.48;;
568;SDS011;269;48.884;9.192;2024-01-30T12:14:16;10.50;;;9.53;;
568;SDS011;269;48.884;9.192;2024-01-30T12:16:43;9.73;;;8.60;;
568;SDS011;269;48.884;9.192;2024-01-30T12:19:09;10.77;;;9.77;;
568;SDS011;269;48.884;9.192;2024-01-30T12:21:37;11.07;;;9.85;;
568;SDS011;269;48.884;9.192;2024-01-30T12:24:04;10.48;;;9.30;;
568;SDS011;269;48.884;9.192;2024-01-30T12:26:32;10.35;;;9.35;;
568;SDS011;269;48.884;9.192;2024-01-30T12:28:59;9.90;;;8.95;;
568;SDS011;269;48.884;9.192;2024-01-30T12:31:26;10.60;;;9.55;;
568;SDS011;269;48.884;9.192;2024-01-30T12:33:53;10.30;;;9.30;;
568;SDS011;269;48.884;9.192;2024-01-30T12:36:20;10.40;;;9.43;;
568;SDS011;269;48.884;9.192;2024-01-30T12:38:48;8.77;;;7.97;;
568;SDS011;269;48.884;9.192;2024-01-30T12:41:16;10.03;;;8.73;;
568;SDS011;269;48.884;9.192;2024-01-30T12:43:43;10.93;;;9.80;;
568;SDS011;269;48.884;9.192;2024-01-30T12:46:09;9.17;;;8.30;;
568;SDS011;269;48.884;9.192;2024-01-30T12:48:36;9.50;;;8.70;;
568;SDS011;269;48.884;9.192;2024-01-30T12:51:02;8.20;;;7.50;;
568;SDS011;269;48.884;9.192;2024-01-30T12:53:29;10.13;;;8.07;;
568;SDS011;269;48.884;9.192;2024-01-30T12:55:57;9.03;;;8.23;;
568;SDS011;269;48.884;9.192;2024-01-30T12:58:23;10.40;;;8.27;;
568;SDS011;269;48.884;9.192;2024-01-30T13:00:50;12.37;;;9.83;;
568;SDS011;269;48.884;9.192;2024-01-30T13:03:17;10.00;;;9.10;;
568;SDS011;269;48.884;9.192;2024-01-30T13:05:43;10.77;;;9.87;;
568;SDS011;269;48.884;9.192;2024-01-30T13:08:10;10.03;;;9.13;;
568;SDS011;269;48.884;9.192;2024-01-30T13:10:36;11.40;;;10.20;;
568;SDS011;269;48.884;9.192;2024-01-30T13:13:05;12.13;;;9.90;;
568;SDS011;269;48.884;9.192;2024-01-30T13:15:31;11.17;;;10.20;;
568;SDS011;269;48.884;9.192;2024-01-30T13:17:58;10.43;;;9.43;;
568;SDS011;269;48.884;9.192;2024-01-30T13:20:24;11.57;;;10.47;;
568;SDS011;269;48.884;9.192;2024-01-30T13:22:51;11.67;;;10.57;;
568;SDS011;269;48.884;9.192;2024-01-30T13:25:17;11.70;;;10.60;;
568;SDS011;269;48.884;9.192;2024-01-30T13:27:44;11.17;;;9.50;;
568;SDS011;269;48.884;9.192;2024-01-30T13:30:12;11.20;;;10.10;;
568;SDS011;269;48.884;9.192;2024-01-30T13:32:39;10.90;;;9.97;;
568;SDS011;269;48.884;9.192;2024-01-30T13:35:06;15.90;;;10.37;;
568;SDS011;269;48.884;9.192;2024-01-30T13:37:33;12.63;;;10.20;;
568;SDS011;269;48.884;9.192;2024-01-30T13:39:59;10.10;;;9.10;;
568;SDS011;269;48.884;9.192;2024-01-30T13:42:26;10.10;;;9.10;;
568;SDS011;269;48.884;9.192;2024-01-30T13:44:52;10.33;;;9.33;;
568;SDS011;269;48.884;9.192;2024-01-30T13:47:20;10.23;;;9.30;;
568;SDS011;269;48.884;9.192;2024-01-30T13:49:47;9.67;;;8.77;;
568;SDS011;269;48.884;9.192;2024-01-30T13:52:14;9.83;;;8.97;;
568;SDS011;269;48.884;9.192;2024-01-30T13:54:42;9.73;;;8.87;;
568;SDS011;269;48.884;9.192;2024-01-30T13:57:09;9.90;;;8.87;;
568;SDS011;269;48.884;9.192;2024-01-30T13:59:35;9.87;;;8.00;;
568;SDS011;269;48.884;9.192;2024-01-30T14:02:05;8.20;;;7.50;;
568;SDS011;269;48.884;9.192;2024-01-30T14:04:34;11.67;;;8.90;;
568;SDS011;269;48.884;9.192;2024-01-30T14:07:02;10.60;;;9.13;;
568;SDS011;269;48.884;9.192;2024-01-30T14:09:29;11.03;;;10.03;;
568;SDS011;269;48.884;9.192;2024-01-30T14:11:57;10.60;;;9.60;;
568;SDS011;269;48.884;9.192;2024-01-30T14:14:24;11.83;;;9.80;;
568;SDS011;269;48.884;9.192;2024-01-30T14:16:51;10.80;;;9.43;;
568;SDS011;269;48.884;9.192;2024-01-30T14:19:17;12.93;;;11.00;;
568;SDS011;269;48.884;9.192;2024-01-30T14:21:45;10.97;;;9.87;;
568;SDS011;269;48.884;9.192;2024-01-30T14:24:12;10.50;;;9.50;;
568;SDS011;269;48.884;9.192;2024-01-30T14:26:38;12.73;;;11.50;;
568;SDS011;269;48.884;9.192;2024-01-30T14:29:05;12.27;;;10.97;;
568;SDS011;269;48.884;9.192;2024-01-30T14:31:31;12.47;;;10.40;;
568;SDS011;269;48.884;9.192;2024-01-30T14:33:58;11.13;;;10.00;;
568;SDS011;269;48.884;9.192;2024-01-30T14:36:25;11.80;;;10.47;;
568;SDS011;269;48.884;9.192;2024-01-30T14:38:54;11.30;;;10.30;;
568;SDS011;269;48.884;9.192;2024-01-30T14:41:21;12.43;;;11.33;;
568;SDS011;269;48.884;9.192;2024-01-30T14:43:47;12.60;;;11.30;;
568;SDS011;269;48.884;9.192;2024-01-30T14:46:14;13.23;;;10.63;;
568;SDS011;269;48.884;9.192;2024-01-30T14:48:41;10.83;;;9.93;;
568;SDS011;269;48.884;9.192;2024-01-30T14:51:08;12.07;;;10.70;;
568;SDS011;269;48.884;9.192;2024-01-30T14:53:35;12.23;;;11.07;;
568;SDS011;269;48.884;9.192;2024-01-30T14:56:03;12.20;;;11.07;;
568;SDS011;269;48.884;9.192;2024-01-30T14:58:30;12.60;;;11.30;;
568;SDS011;269;48.884;9.192;2024-01-30T15:00:57;12.10;;;11.00;;
568;SDS011;269;48.884;9.192;2024-01-30T15:08:34;13.33;;;12.00;;
568;SDS011;269;48.884;9.192;2024-01-30T15:11:00;12.43;;;11.33;;
568;SDS011;269;48.884;9.192;2024-01-30T15:13:30;12.00;;;10.90;;
568;SDS011;269;48.884;9.192;2024-01-30T15:15:57;11.80;;;10.70;;
568;SDS011;269;48.884;9.192;2024-01-30T15:18:24;12.87;;;11.60;;
568;SDS011;269;48.884;9.192;2024-01-30T15:20:51;13.53;;;11.80;;
568;SDS011;269;48.884;9.192;2024-01-30T15:36:36;11.17;;;10.07;;
568;SDS011;269;48.884;9.192;2024-01-30T15:39:02;11.63;;;10.30;;